Flight Track Log - Related Links

Times and Time Zones

All times are in EDT time to prevent confusion due to time zone crossing. See the UAL481 flight status page for this flight to view local times or setup timezone preferences in your user account.

Time Position Orientation Groundspeed Altitude Reporting Facility
EDT Latitude Longitude Course Direction KTS MPH feet Rate Location/Type
Sun 12:29:55 AM 61.2333 -149.7000 103° East 270 311 9,700  Level Anchorage Center
Sun 12:30:55 AM 61.2167 -149.5333 102° East 320 368 11,000 1,500 Climbing Anchorage Center
Sun 12:31:00 AM 60.9264 -148.5876 99° East  Level FlightAware Approximate
Sun 12:31:55 AM 61.1833 -149.3333 109° East 360 414 12,700  Level Anchorage Center
Sun 12:32:00 AM 60.9072 -148.3416 99° East  Level FlightAware Approximate
Sun 12:32:55 AM 61.1667 -149.1500 101° East 380 437 14,700  Level Anchorage Center
Sun 12:33:00 AM 60.8855 -148.0967 101° East  Level FlightAware Approximate
Sun 12:33:56 AM 61.1333 -148.9333 108° East 390 449 16,700  Level Anchorage Center
Sun 12:34:00 AM 60.8613 -147.8529 103° East  Level FlightAware Approximate
Sun 12:34:56 AM 61.1167 -148.7167 99° East 400 460 18,300  Level Anchorage Center
Sun 12:35:00 AM 60.8335 -147.6110 103° East  Level FlightAware Approximate
Sun 12:35:56 AM 61.1000 -148.4833 98° East 400 460 20,100  Level Anchorage Center
Sun 12:36:57 AM 61.0833 -148.2500 98° East 420 483 21,800 1,587 Climbing Anchorage Center
Sun 12:37:57 AM 61.0667 -148.0167 98° East 420 483 23,300 1,400 Climbing Anchorage Center
Sun 12:38:57 AM 61.0500 -147.7667 98° East 420 483 24,600 1,388 Climbing Anchorage Center
Sun 12:39:58 AM 61.0333 -147.5167 98° East 430 495 26,100 1,339 Climbing Anchorage Center
Sun 12:40:58 AM 61.0167 -147.2667 98° East 430 495 27,300 1,091 Climbing Anchorage Center
Sun 12:41:59 AM 61.0000 -147.0167 98° East 440 506 28,300 1,260 Climbing Anchorage Center
Sun 12:43:59 AM 60.9500 -146.5167 101° East 440 506 31,100 1,326 Climbing Anchorage Center
Sun 12:45:00 AM 60.9333 -146.2833 98° East 430 495 32,300 1,140 Climbing Anchorage Center
Sun 12:46:00 AM 60.9167 -146.0333 98° East 420 483 33,400 1,000 Climbing Anchorage Center
Sun 12:47:00 AM 60.8833 -145.7500 103° East 420 483 34,300 793 Climbing Anchorage Center
Sun 12:48:01 AM 60.8667 -145.5667 100° East 410 472 35,000 347 Climbing Anchorage Center
Sun 12:49:01 AM 60.8500 -145.2833 97° East 410 472 35,000  Level Anchorage Center
Sun 12:50:01 AM 60.8167 -145.0500 106° East 410 472 35,000  Level Anchorage Center
Sun 12:51:02 AM 60.8000 -144.8167 98° East 420 483 35,000  Level Anchorage Center
Sun 12:52:02 AM 60.7833 -144.5833 98° East 410 472 35,000  Level Anchorage Center
Sun 12:53:02 AM 60.7500 -144.3500 106° East 410 472 35,000  Level Anchorage Center
Sun 12:54:03 AM 60.7333 -144.1167 98° East 410 472 35,000  Level Anchorage Center
Sun 12:55:03 AM 60.7000 -143.8833 106° East 420 483 35,000  Level Anchorage Center
Sun 12:56:03 AM 60.6833 -143.6667 99° East 400 460 35,000  Level Anchorage Center
Sun 12:57:04 AM 60.6667 -143.4333 98° East 410 472 35,000  Level Anchorage Center
Sun 12:58:04 AM 60.6333 -143.2000 106° East 410 472 35,000  Level Anchorage Center
Sun 12:59:05 AM 60.6000 -142.9667 106° East 410 472 35,000  Level Anchorage Center
Sun 01:00:05 AM 60.5833 -142.7833 100° East 400 460 35,000  Level Anchorage Center
Sun 01:01:05 AM 60.5667 -142.5667 99° East 400 460 35,000  Level Anchorage Center
Sun 01:02:06 AM 60.5333 -142.3333 106° East 410 472 35,000  Level Anchorage Center
Sun 01:03:06 AM 60.5167 -142.1167 99° East 410 472 35,000  Level Anchorage Center
Sun 01:04:06 AM 60.4833 -141.8833 106° East 410 472 35,000  Level Anchorage Center
Sun 01:05:07 AM 60.4500 -141.6667 107° East 410 472 35,000  Level Anchorage Center
Sun 01:06:07 AM 60.4333 -141.4333 98° East 410 472 35,000  Level Anchorage Center
Sun 01:07:07 AM 60.4000 -141.1667 104° East 410 472 35,000  Level Anchorage Center
Sun 01:08:08 AM 60.3667 -140.9333 106° East 410 472 35,000  Level Anchorage Center
Sun 01:09:08 AM 60.3333 -140.7167 107° East 410 472 35,000  Level Anchorage Center
Sun 01:10:09 AM 60.3167 -140.4833 98° East 410 472 35,000  Level Anchorage Center
Sun 01:11:09 AM 60.2833 -140.2667 107° East 410 472 35,000  Level Anchorage Center
Sun 01:12:09 AM 60.2500 -140.0333 106° East 420 483 35,000  Level Anchorage Center
Sun 01:13:10 AM 60.2167 -139.8167 107° East 410 472 35,000  Level Anchorage Center
Sun 01:14:10 AM 60.1833 -139.6000 107° East 410 472 35,000  Level Anchorage Center
Sun 01:15:10 AM 60.1667 -139.4167 100° East 410 472 35,000  Level Anchorage Center
Sun 01:16:11 AM 60.1333 -139.2000 107° East 410 472 35,000  Level Anchorage Center
Sun 01:17:11 AM 60.1000 -138.9167 103° East 410 472 35,000  Level Anchorage Center
Sun 01:19:00 AM 60.0522 -138.4890 102° East  Level FlightAware Approximate
Sun 01:26:00 AM 59.8554 -136.8530 103° East  Level FlightAware Approximate
Sun 01:27:00 AM 59.8256 -136.6210 104° East  Level FlightAware Approximate
Sun 01:28:00 AM 59.7954 -136.3893 104° East  Level FlightAware Approximate
Sun 01:29:00 AM 59.7648 -136.1580 105° East  Level FlightAware Approximate
Sun 01:30:00 AM 59.7338 -135.9272 105° East  Level FlightAware Approximate
Sun 01:31:00 AM 59.7024 -135.6968 105° East  Level FlightAware Approximate
Sun 01:32:00 AM 59.6707 -135.4668 105° East  Level FlightAware Approximate
Sun 01:33:00 AM 59.6385 -135.2373 105° East  Level FlightAware Approximate
Sun 01:34:00 AM 59.6059 -135.0082 106° East  Level FlightAware Approximate
Sun 01:35:00 AM 59.5728 -134.7796 106° East  Level FlightAware Approximate
Sun 01:36:00 AM 59.5395 -134.5514 106° East  Level FlightAware Approximate
Sun 01:37:00 AM 59.5057 -134.3237 106° East  Level FlightAware Approximate
Sun 01:38:00 AM 59.4715 -134.0964 106° East  Level FlightAware Approximate
Sun 01:39:00 AM 59.4369 -133.8696 107° East  Level FlightAware Approximate
Sun 01:40:00 AM 59.4019 -133.6433 107° East  Level FlightAware Approximate
Sun 01:41:00 AM 59.3666 -133.4174 107° East  Level FlightAware Approximate
Sun 01:42:00 AM 59.3308 -133.1920 107° East  Level FlightAware Approximate
Sun 01:43:00 AM 59.2946 -132.9671 108° East  Level FlightAware Approximate
Sun 01:44:00 AM 59.2576 -132.7429 108° East  Level FlightAware Approximate
Sun 01:45:00 AM 59.2203 -132.5192 108° East  Level FlightAware Approximate
Sun 01:46:00 AM 59.1825 -132.2961 108° East  Level FlightAware Approximate
Sun 01:47:00 AM 59.1444 -132.0734 108° East  Level FlightAware Approximate
Sun 01:48:00 AM 59.1059 -131.8512 109° East  Level FlightAware Approximate
Sun 01:49:00 AM 59.0670 -131.6295 109° East  Level FlightAware Approximate
Sun 01:50:00 AM 59.0277 -131.4083 109° East  Level FlightAware Approximate
Sun 01:51:00 AM 58.9881 -131.1876 109° East  Level FlightAware Approximate
Sun 01:52:00 AM 58.9481 -130.9675 109° East  Level FlightAware Approximate
Sun 01:53:00 AM 58.9077 -130.7478 110° East  Level FlightAware Approximate
Sun 01:54:00 AM 58.8669 -130.5287 110° East  Level FlightAware Approximate
Sun 01:55:00 AM 58.8258 -130.3100 110° East  Level FlightAware Approximate
Sun 01:56:00 AM 58.7843 -130.0919 110° East  Level FlightAware Approximate
Sun 01:57:00 AM 58.7430 -129.8740 110° East  Level FlightAware Approximate
Sun 01:58:00 AM 58.7018 -129.6562 110° East  Level FlightAware Approximate
Sun 01:59:00 AM 58.6601 -129.4390 110° East  Level FlightAware Approximate
Sun 02:00:00 AM 58.6181 -129.2223 110° East  Level FlightAware Approximate
Sun 02:01:00 AM 58.5758 -129.0061 111° Southeast  Level FlightAware Approximate
Sun 02:02:00 AM 58.5331 -128.7904 111° Southeast  Level FlightAware Approximate
Sun 02:03:00 AM 58.4900 -128.5753 111° Southeast  Level FlightAware Approximate
Sun 02:04:00 AM 58.4466 -128.3607 111° Southeast  Level FlightAware Approximate
Sun 02:05:00 AM 58.4028 -128.1466 111° Southeast  Level FlightAware Approximate
Sun 02:06:00 AM 58.3587 -127.9330 111° Southeast  Level FlightAware Approximate
Sun 02:07:00 AM 58.3142 -127.7200 112° Southeast  Level FlightAware Approximate
Sun 02:08:00 AM 58.2693 -127.5076 112° Southeast  Level FlightAware Approximate
Sun 02:09:00 AM 58.2241 -127.2956 112° Southeast  Level FlightAware Approximate
Sun 02:10:00 AM 58.1785 -127.0842 112° Southeast  Level FlightAware Approximate
Sun 02:11:00 AM 58.1326 -126.8734 112° Southeast  Level FlightAware Approximate
Sun 02:12:00 AM 58.0864 -126.6631 113° Southeast  Level FlightAware Approximate
Sun 02:13:00 AM 58.0398 -126.4533 113° Southeast  Level FlightAware Approximate
Sun 02:14:00 AM 57.9926 -126.2443 113° Southeast  Level FlightAware Approximate
Sun 02:15:00 AM 57.9448 -126.0361 113° Southeast  Level FlightAware Approximate
Sun 02:16:00 AM 57.8967 -125.8284 113° Southeast  Level FlightAware Approximate
Sun 02:17:00 AM 57.8482 -125.6212 114° Southeast  Level FlightAware Approximate
Sun 02:18:00 AM 57.7994 -125.4147 114° Southeast  Level FlightAware Approximate
Sun 02:19:00 AM 57.7503 -125.2087 114° Southeast  Level FlightAware Approximate
Sun 02:20:00 AM 57.7008 -125.0032 114° Southeast  Level FlightAware Approximate
Sun 02:21:00 AM 57.6511 -124.7982 114° Southeast  Level FlightAware Approximate
Sun 02:22:00 AM 57.6010 -124.5938 114° Southeast  Level FlightAware Approximate
Sun 02:23:00 AM 57.5506 -124.3900 115° Southeast  Level FlightAware Approximate
Sun 02:24:00 AM 57.4999 -124.1867 115° Southeast  Level FlightAware Approximate
Sun 02:24:10 AM 57.5000 -124.4167 116° Southeast 450 518 35,000  Level Edmonton Center
Sun 02:25:00 AM 57.4489 -123.9840 115° Southeast  Level FlightAware Approximate
Sun 02:25:10 AM 57.4500 -124.2167 115° Southeast 450 518 35,000  Level Edmonton Center
Sun 02:26:00 AM 57.3975 -123.7819 115° Southeast  Level FlightAware Approximate
Sun 02:26:10 AM 57.3833 -123.9833 118° Southeast 450 518 35,000  Level Edmonton Center
Sun 02:27:00 AM 57.3459 -123.5803 115° Southeast  Level FlightAware Approximate
Sun 02:27:10 AM 57.3333 -123.7667 113° Southeast 450 518 35,000  Level Edmonton Center
Sun 02:28:00 AM 57.2939 -123.3793 116° Southeast  Level FlightAware Approximate
Sun 02:28:10 AM 57.2833 -123.5667 115° Southeast 450 518 35,000  Level Edmonton Center
Sun 02:29:00 AM 57.2416 -123.1789 116° Southeast  Level FlightAware Approximate
Sun 02:29:10 AM 57.2500 -123.3667 107° East 450 518 35,000  Level Edmonton Center
Sun 02:30:10 AM 57.1667 -123.1333 123° Southeast 450 518 35,000  Level Edmonton Center
Sun 02:31:10 AM 57.1333 -122.9500 108° East 450 518 35,000  Level Edmonton Center
Sun 02:32:10 AM 57.0833 -122.7333 113° Southeast 450 518 35,000  Level Edmonton Center
Sun 02:33:10 AM 57.0167 -122.5333 121° Southeast 450 518 35,000  Level Edmonton Center
Sun 02:34:10 AM 56.9667 -122.3167 113° Southeast 440 506 35,000  Level Edmonton Center
Sun 02:35:10 AM 56.9000 -122.1000 119° Southeast 440 506 35,000  Level Edmonton Center
Sun 02:36:10 AM 56.8667 -121.9167 108° East 440 506 35,000 250 Level Edmonton Center
Sun 02:37:10 AM 56.8000 -121.7000 119° Southeast 440 506 35,500 500 Climbing Edmonton Center
Sun 02:38:10 AM 56.7500 -121.5167 116° Southeast 440 506 36,000 550 Climbing Edmonton Center
Sun 02:39:10 AM 56.6833 -121.3000 119° Southeast 450 518 36,600 500 Climbing Edmonton Center
Sun 02:40:10 AM 56.6167 -121.1167 123° Southeast 450 518 37,000 200 Climbing Edmonton Center
Sun 02:41:10 AM 56.5667 -120.9000 113° Southeast 450 518 37,000  Level Edmonton Center
Sun 02:42:10 AM 56.5000 -120.6833 119° Southeast 450 518 37,000  Level Edmonton Center
Sun 02:43:10 AM 56.4667 -120.5000 108° East 450 518 37,000  Level Edmonton Center
Sun 02:44:10 AM 56.4000 -120.3000 121° Southeast 450 518 37,000  Level Edmonton Center
Sun 02:45:10 AM 56.3333 -120.1167 123° Southeast 450 518 37,000  Level Edmonton Center
Sun 02:46:10 AM 56.2833 -119.9000 112° Southeast 440 506 37,000  Level Edmonton Center
Sun 02:47:10 AM 56.2167 -119.7167 123° Southeast 450 518 37,000  Level Edmonton Center
Sun 02:48:10 AM 56.1500 -119.5167 121° Southeast 450 518 37,000  Level Edmonton Center
Sun 02:49:10 AM 56.1000 -119.3000 112° Southeast 450 518 37,000  Level Edmonton Center
Sun 02:50:10 AM 56.0333 -119.0833 119° Southeast 450 518 37,000  Level Edmonton Center
Sun 02:51:10 AM 55.9667 -118.9167 126° Southeast 450 518 37,000  Level Edmonton Center
Sun 02:52:10 AM 55.9000 -118.7333 123° Southeast 450 518 37,000  Level Edmonton Center
Sun 02:53:10 AM 55.8333 -118.5333 121° Southeast 450 518 37,000  Level Edmonton Center
Sun 02:54:10 AM 55.7833 -118.3167 112° Southeast 450 518 37,000  Level Edmonton Center
Sun 02:55:10 AM 55.7167 -118.1167 121° Southeast 450 518 37,000  Level Edmonton Center
Sun 02:56:10 AM 55.6667 -117.9500 118° Southeast 450 518 37,000  Level Edmonton Center
Sun 02:57:10 AM 55.5833 -117.7333 124° Southeast 450 518 37,000  Level Edmonton Center
Sun 02:58:10 AM 55.5333 -117.5667 118° Southeast 450 518 37,000  Level Edmonton Center
Sun 02:59:10 AM 55.4667 -117.3667 120° Southeast 450 518 37,000  Level Edmonton Center
Sun 03:00:10 AM 55.4000 -117.1667 120° Southeast 450 518 37,000  Level Edmonton Center
Sun 03:01:10 AM 55.3333 -116.9833 123° Southeast 450 518 37,000  Level Edmonton Center
Sun 03:02:10 AM 55.2667 -116.7833 120° Southeast 450 518 37,000  Level Edmonton Center
Sun 03:03:10 AM 55.2000 -116.6167 125° Southeast 440 506 37,000  Level Edmonton Center
Sun 03:04:10 AM 55.1333 -116.4167 120° Southeast 440 506 37,000  Level Edmonton Center
Sun 03:05:10 AM 55.0833 -116.2500 118° Southeast 440 506 37,000  Level Edmonton Center
Sun 03:06:10 AM 55.0167 -116.0500 120° Southeast 430 495 37,000  Level Edmonton Center
Sun 03:07:10 AM 54.9500 -115.8833 125° Southeast 430 495 37,000  Level Edmonton Center
Sun 03:08:10 AM 54.9000 -115.7167 117° Southeast 430 495 37,000  Level Edmonton Center
Sun 03:09:10 AM 54.8167 -115.5167 126° Southeast 430 495 37,000  Level Edmonton Center
Sun 03:10:10 AM 54.7500 -115.3500 125° Southeast 430 495 37,000  Level Edmonton Center
Sun 03:11:10 AM 54.6833 -115.1500 120° Southeast 430 495 37,000  Level Edmonton Center
Sun 03:12:10 AM 54.6333 -115.0000 120° Southeast 440 506 37,000  Level Edmonton Center
Sun 03:13:10 AM 54.5667 -114.8000 120° Southeast 440 506 37,000  Level Edmonton Center
Sun 03:14:10 AM 54.4833 -114.6333 131° Southeast 440 506 37,000  Level Edmonton Center
Sun 03:15:10 AM 54.4167 -114.4500 122° Southeast 440 506 37,000  Level Edmonton Center
Sun 03:16:10 AM 54.3500 -114.2500 120° Southeast 440 506 37,000  Level Edmonton Center
Sun 03:17:10 AM 54.2833 -114.0833 124° Southeast 440 506 37,000  Level Edmonton Center
Sun 03:18:10 AM 54.2167 -113.9000 122° Southeast 440 506 37,000  Level Edmonton Center
Sun 03:19:10 AM 54.1500 -113.7333 124° Southeast 440 506 37,000  Level Edmonton Center
Sun 03:20:10 AM 54.0833 -113.5833 127° Southeast 440 506 37,000  Level Edmonton Center
Sun 03:21:10 AM 54.0167 -113.3833 120° Southeast 440 506 37,000  Level Edmonton Center
Sun 03:22:10 AM 53.9500 -113.2000 122° Southeast 440 506 37,000  Level Edmonton Center
Sun 03:23:10 AM 53.8667 -113.0333 130° Southeast 450 518 37,000  Level Edmonton Center
Sun 03:24:10 AM 53.8000 -112.8500 122° Southeast 450 518 37,000  Level Edmonton Center
Sun 03:25:10 AM 53.7333 -112.7000 127° Southeast 450 518 37,000  Level Edmonton Center
Sun 03:26:10 AM 53.6667 -112.5167 121° Southeast 450 518 37,000  Level Edmonton Center
Sun 03:27:10 AM 53.5833 -112.3333 127° Southeast 450 518 37,000  Level Edmonton Center
Sun 03:28:10 AM 53.5167 -112.1500 121° Southeast 450 518 37,000  Level Edmonton Center
Sun 03:29:10 AM 53.4333 -111.9833 130° Southeast 450 518 37,000  Level Edmonton Center
Sun 03:30:10 AM 53.3667 -111.8000 121° Southeast 460 529 37,000  Level Edmonton Center
Sun 03:31:10 AM 53.3000 -111.6167 121° Southeast 460 529 37,000  Level Edmonton Center
Sun 03:32:10 AM 53.2167 -111.4667 133° Southeast 460 529 37,000  Level Edmonton Center
Sun 03:33:10 AM 53.1500 -111.2500 117° Southeast 460 529 37,000  Level Edmonton Center
Sun 03:34:10 AM 53.0667 -111.1000 133° Southeast 460 529 37,000  Level Edmonton Center
Sun 03:35:10 AM 52.9833 -110.9167 127° Southeast 460 529 37,000  Level Edmonton Center
Sun 03:36:10 AM 52.9167 -110.7500 124° Southeast 460 529 37,000  Level Edmonton Center
Sun 03:37:10 AM 52.8500 -110.5333 117° Southeast 460 529 37,000  Level Edmonton Center
Sun 03:38:10 AM 52.8000 -110.3667 116° Southeast 450 518 37,000  Level Edmonton Center
Sun 03:39:10 AM 52.7167 -110.1833 127° Southeast 460 529 37,000  Level Edmonton Center
Sun 03:40:10 AM 52.6667 -110.0167 116° Southeast 460 529 37,000  Level Edmonton Center
Sun 03:41:10 AM 52.6000 -109.8333 121° Southeast 460 529 37,000  Level Edmonton Center
Sun 03:42:10 AM 52.5333 -109.6333 119° Southeast 460 529 37,000  Level Edmonton Center
Sun 03:43:10 AM 52.4667 -109.4667 123° Southeast 460 529 37,000  Level Edmonton Center
Sun 03:44:10 AM 52.3833 -109.2500 122° Southeast 460 529 37,000  Level Edmonton Center
Sun 03:45:10 AM 52.3333 -109.0833 116° Southeast 470 541 37,000  Level Edmonton Center
Sun 03:46:10 AM 52.2667 -108.9167 123° Southeast 470 541 37,000  Level Edmonton Center
Sun 03:47:10 AM 52.1833 -108.7167 124° Southeast 470 541 37,000  Level Edmonton Center
Sun 03:48:10 AM 52.1333 -108.5500 116° Southeast 470 541 37,000  Level Edmonton Center
Sun 03:49:10 AM 52.0500 -108.3500 124° Southeast 470 541 37,000  Level Edmonton Center
Sun 03:50:10 AM 51.9833 -108.1667 121° Southeast 470 541 37,000  Level Edmonton Center
Sun 03:51:10 AM 51.9167 -108.0000 123° Southeast 470 541 37,000  Level Edmonton Center
Sun 03:52:10 AM 51.8500 -107.8000 118° Southeast 470 541 37,000  Level Edmonton Center
Sun 03:53:10 AM 51.7833 -107.6333 123° Southeast 470 541 37,000  Level Edmonton Center
Sun 03:54:10 AM 51.7000 -107.4500 126° Southeast 470 541 37,000  Level Edmonton Center
Sun 03:55:10 AM 51.6333 -107.2833 123° Southeast 470 541 37,000  Level Edmonton Center
Sun 03:56:10 AM 51.5667 -107.1167 123° Southeast 470 541 37,000  Level Edmonton Center
Sun 03:57:10 AM 51.4833 -106.9167 124° Southeast 470 541 37,000  Level Edmonton Center
Sun 03:58:10 AM 51.4333 -106.7500 116° Southeast 470 541 37,000  Level Edmonton Center
Sun 03:59:10 AM 51.3500 -106.5667 126° Southeast 470 541 37,000  Level Edmonton Center
Sun 04:00:10 AM 51.2833 -106.4000 123° Southeast 470 541 37,000  Level Edmonton Center
Sun 04:01:10 AM 51.2000 -106.2000 124° Southeast 470 541 37,000  Level Edmonton Center
Sun 04:02:10 AM 51.1333 -106.0333 122° Southeast 470 541 37,000  Level Edmonton Center
Sun 04:03:10 AM 51.0500 -105.8500 126° Southeast 470 541 37,000  Level Edmonton Center
Sun 04:04:10 AM 50.9833 -105.6833 122° Southeast 470 541 37,000  Level Edmonton Center
Sun 04:05:10 AM 50.9000 -105.5000 126° Southeast 470 541 37,000  Level Edmonton Center
Sun 04:06:20 AM 50.8333 -105.3167 120° Southeast 480 552 37,000  Level Winnipeg Center
Sun 04:07:20 AM 50.7667 -105.1500 122° Southeast 480 552 37,000  Level Winnipeg Center
Sun 04:08:20 AM 50.6833 -105.0000 131° Southeast 480 552 37,000  Level Winnipeg Center
Sun 04:09:20 AM 50.6000 -104.8000 123° Southeast 480 552 37,000  Level Winnipeg Center
Sun 04:10:20 AM 50.5333 -104.6333 122° Southeast 480 552 37,000  Level Winnipeg Center
Sun 04:11:20 AM 50.4500 -104.4667 128° Southeast 490 564 37,000  Level Winnipeg Center
Sun 04:12:20 AM 50.3833 -104.2667 118° Southeast 480 552 37,000  Level Winnipeg Center
Sun 04:13:20 AM 50.3167 -104.1000 122° Southeast 480 552 37,000  Level Winnipeg Center
Sun 04:14:20 AM 50.2333 -103.9333 128° Southeast 480 552 37,000  Level Winnipeg Center
Sun 04:15:20 AM 50.1667 -103.7667 122° Southeast 480 552 37,000  Level Winnipeg Center
Sun 04:16:20 AM 50.0667 -103.5667 128° Southeast 490 564 37,000  Level Winnipeg Center
Sun 04:17:20 AM 50.0000 -103.4000 122° Southeast 490 564 37,000  Level Winnipeg Center
Sun 04:18:20 AM 49.9333 -103.2333 122° Southeast 490 564 37,000  Level Winnipeg Center
Sun 04:19:20 AM 49.8500 -103.0667 128° Southeast 490 564 37,000  Level Winnipeg Center
Sun 04:20:20 AM 49.7833 -102.8833 119° Southeast 490 564 37,000  Level Winnipeg Center
Sun 04:21:20 AM 49.7000 -102.7167 128° Southeast 490 564 37,000  Level Winnipeg Center
Sun 04:22:20 AM 49.6333 -102.5500 122° Southeast 490 564 37,000  Level Winnipeg Center
Sun 04:23:20 AM 49.5333 -102.3500 128° Southeast 490 564 37,000  Level Winnipeg Center
Sun 04:24:20 AM 49.4667 -102.2000 124° Southeast 490 564 37,000  Level Winnipeg Center
Sun 04:25:20 AM 49.3833 -102.0333 127° Southeast 490 564 37,000  Level Winnipeg Center
Sun 04:26:20 AM 49.3000 -101.8500 125° Southeast 490 564 37,000  Level Winnipeg Center
Sun 04:27:20 AM 49.2333 -101.6833 121° Southeast 490 564 37,000  Level Winnipeg Center
Sun 04:28:20 AM 49.1500 -101.5167 127° Southeast 490 564 37,000  Level Winnipeg Center
Sun 04:29:20 AM 49.0833 -101.3667 124° Southeast 490 564 37,000  Level Winnipeg Center
Sun 04:30:20 AM 48.9833 -101.2000 132° Southeast 490 564 37,000  Level Winnipeg Center
Sun 04:31:20 AM 48.9000 -101.0167 125° Southeast 490 564 37,000  Level Winnipeg Center
Sun 04:32:20 AM 48.8333 -100.8500 121° Southeast 490 564 37,000  Level Winnipeg Center
Sun 04:33:20 AM 48.7500 -100.6667 125° Southeast 490 564 37,000  Level Winnipeg Center
Sun 04:34:31 AM 48.6678 -100.4817 124° Southeast 489 563 37,000  Level Minneapolis Center
Sun 04:35:31 AM 48.5844 -100.3150 127° Southeast 492 566 37,000  Level Minneapolis Center
Sun 04:36:32 AM 48.5014 -100.1503 127° Southeast 493 567 37,000  Level Minneapolis Center
Sun 04:37:32 AM 48.4186 -99.9864 127° Southeast 494 568 37,000  Level Minneapolis Center
Sun 04:38:33 AM 48.3369 -99.8200 126° Southeast 495 570 37,000 -50 Level Minneapolis Center
Sun 04:39:33 AM 48.2539 -99.6542 127° Southeast 497 572 36,900  Descending Minneapolis Center
Sun 04:40:34 AM 48.1700 -99.4886 127° Southeast 498 573 37,000  Climbing Minneapolis Center
Sun 04:41:34 AM 48.0864 -99.3242 127° Southeast 499 574 36,900 -50 Descending Minneapolis Center
Sun 04:42:35 AM 48.0006 -99.1603 128° Southeast 501 577 36,900 50 Level Minneapolis Center
Sun 04:43:35 AM 47.9150 -98.9947 128° Southeast 504 580 37,000 50 Climbing Minneapolis Center
Sun 04:44:36 AM 47.8281 -98.8292 128° Southeast 506 582 37,000  Level Minneapolis Center
Sun 04:45:48 AM 47.7417 -98.6647 128° Southeast 507 583 37,000  Level Minneapolis Center
Sun 04:46:49 AM 47.6383 -98.4678 128° Southeast 507 583 37,000  Level Minneapolis Center
Sun 04:47:49 AM 47.5519 -98.3061 128° Southeast 507 583 37,000 -50 Level Minneapolis Center
Sun 04:48:50 AM 47.4661 -98.1461 128° Southeast 505 581 36,900 -50 Descending Minneapolis Center
Sun 04:49:50 AM 47.3811 -97.9894 129° Southeast 505 581 36,900 50 Level Minneapolis Center
Sun 04:50:50 AM 47.2800 -97.8006 128° Southeast 500 575 37,000  Climbing Minneapolis Center
Sun 04:51:51 AM 47.1931 -97.6397 128° Southeast 505 581 36,900  Descending Minneapolis Center
Sun 04:52:51 AM 47.1044 -97.4772 129° Southeast 512 589 37,000  Climbing Minneapolis Center
Sun 04:53:52 AM 47.0153 -97.3161 129° Southeast 512 589 36,900  Descending Minneapolis Center
Sun 04:54:52 AM 46.9261 -97.1550 129° Southeast 512 589 37,000 50 Climbing Minneapolis Center
Sun 04:55:53 AM 46.8347 -96.9961 130° Southeast 512 589 37,000  Level Minneapolis Center
Sun 04:56:53 AM 46.7469 -96.8328 128° Southeast 513 590 37,000  Level Minneapolis Center
Sun 04:57:54 AM 46.6689 -96.6547 123° Southeast 520 598 37,000  Level Minneapolis Center
Sun 04:58:54 AM 46.5917 -96.4772 122° Southeast 522 601 37,000  Level Minneapolis Center
Sun 04:59:55 AM 46.5139 -96.3025 123° Southeast 518 596 37,000  Level Minneapolis Center
Sun 05:00:55 AM 46.4358 -96.1269 123° Southeast 519 597 37,000 -50 Level Minneapolis Center
Sun 05:01:56 AM 46.3575 -95.9517 123° Southeast 520 598 36,900  Descending Minneapolis Center
Sun 05:02:56 AM 46.2733 -95.7642 123° Southeast 517 595 37,000 50 Climbing Minneapolis Center
Sun 05:03:57 AM 46.1953 -95.5900 123° Southeast 516 594 37,000  Level Minneapolis Center
Sun 05:04:57 AM 46.1144 -95.4156 124° Southeast 521 600 37,000  Level Minneapolis Center
Sun 05:05:58 AM 46.0358 -95.2403 123° Southeast 520 598 37,000  Level Minneapolis Center
Sun 05:06:58 AM 45.9558 -95.0681 124° Southeast 519 597 37,000  Level Minneapolis Center
Sun 05:07:58 AM 45.8711 -94.8861 124° Southeast 520 598 37,000  Level Minneapolis Center
Sun 05:08:59 AM 45.7906 -94.7144 124° Southeast 521 600 37,000  Level Minneapolis Center
Sun 05:09:59 AM 45.7097 -94.5422 124° Southeast 523 602 37,000  Level Minneapolis Center
Sun 05:11:00 AM 45.6289 -94.3703 124° Southeast 523 602 37,000  Level Minneapolis Center
Sun 05:12:00 AM 45.5483 -94.2003 124° Southeast 521 600 37,000  Level Minneapolis Center
Sun 05:13:01 AM 45.4669 -94.0297 124° Southeast 520 598 37,000  Level Minneapolis Center
Sun 05:14:01 AM 45.3847 -93.8586 124° Southeast 523 602 37,000  Level Minneapolis Center
Sun 05:15:01 AM 45.3000 -93.6881 125° Southeast 528 608 37,000  Level Minneapolis Center
Sun 05:16:02 AM 45.2169 -93.5167 124° Southeast 529 609 37,000  Level Minneapolis Center
Sun 05:17:02 AM 45.1319 -93.3428 125° Southeast 533 613 37,000  Level Minneapolis Center
Sun 05:18:02 AM 45.0558 -93.1594 120° Southeast 537 618 37,000  Level Minneapolis Center
Sun 05:19:03 AM 44.9781 -92.9744 121° Southeast 539 620 37,000  Level Minneapolis Center
Sun 05:20:03 AM 44.9011 -92.7894 120° Southeast 540 621 37,000  Level Minneapolis Center
Sun 05:21:04 AM 44.8192 -92.6128 123° Southeast 537 618 37,000  Level Minneapolis Center
Sun 05:22:04 AM 44.7303 -92.4469 127° Southeast 531 611 37,000  Level Minneapolis Center
Sun 05:23:04 AM 44.6403 -92.2831 128° Southeast 530 610 37,000  Level Minneapolis Center
Sun 05:24:05 AM 44.5481 -92.1214 129° Southeast 531 611 37,000  Level Minneapolis Center
Sun 05:25:05 AM 44.4575 -91.9600 128° Southeast 530 610 37,000  Level Minneapolis Center
Sun 05:26:05 AM 44.3656 -91.7994 129° Southeast 529 609 37,000  Level Minneapolis Center
Sun 05:27:06 AM 44.2736 -91.6408 129° Southeast 528 608 37,000  Level Minneapolis Center
Sun 05:28:06 AM 44.1828 -91.4844 129° Southeast 523 602 37,000  Level Minneapolis Center
Sun 05:29:06 AM 44.0933 -91.3283 129° Southeast 520 598 37,000  Level Minneapolis Center
Sun 05:30:07 AM 44.0103 -91.1842 129° Southeast 515 593 37,000  Level Minneapolis Center
Sun 05:31:07 AM 43.9197 -91.0300 129° Southeast 517 595 37,000  Level Minneapolis Center
Sun 05:32:08 AM 43.8303 -90.8756 129° Southeast 517 595 37,000  Level Minneapolis Center
Sun 05:33:08 AM 43.7397 -90.7217 129° Southeast 517 595 37,000  Level Minneapolis Center
Sun 05:34:08 AM 43.6311 -90.5389 129° Southeast 516 594 37,000 -600 Level Minneapolis Center
Sun 05:35:08 AM 43.5406 -90.3881 130° Southeast 513 590 35,800 -2,331 Descending Minneapolis Center
Sun 05:36:09 AM 43.4497 -90.2358 129° Southeast 516 594 32,300 -3,328 Descending Minneapolis Center
Sun 05:37:16 AM 43.3453 -90.0700 131° Southeast 544 626 28,700 -2,409 Descending Chicago Center
Sun 05:38:16 AM 43.2286 -89.9675 147° Southeast 500 575 27,200 -1,850 Descending Chicago Center
Sun 05:39:16 AM 43.1153 -89.8761 150° Southeast 478 550 25,000 -2,281 Descending Chicago Center
Sun 05:40:17 AM 43.0061 -89.7931 151° Southeast 459 528 22,600 -2,331 Descending Chicago Center
Sun 05:41:17 AM 42.8978 -89.7128 151° Southeast 447 514 20,300 -1,800 Descending Chicago Center
Sun 05:42:17 AM 42.7972 -89.6283 148° Southeast 431 496 19,000 -1,450 Descending Chicago Center
Sun 05:43:17 AM 42.7336 -89.5069 125° Southeast 398 458 17,400 -1,785 Descending Chicago Center
Sun 05:44:18 AM 42.6775 -89.3794 121° Southeast 394 453 15,400 -1,736 Descending Chicago Center
Sun 05:45:18 AM 42.6197 -89.2519 122° Southeast 398 458 13,900 -1,150 Descending Chicago Center
Sun 05:46:18 AM 42.5628 -89.1233 121° Southeast 398 458 13,100 -446 Descending Chicago Center
Sun 05:47:19 AM 42.5197 -88.9892 113° Southeast 392 451 13,000 -496 Descending Chicago Center
Sun 05:48:19 AM 42.4797 -88.8511 111° Southeast 394 453 12,100 -1,400 Descending Chicago Center
Sun 05:49:19 AM 42.4414 -88.7183 111° Southeast 382 440 10,200 -1,041 Descending Chicago Center
Sun 05:50:20 AM 42.3961 -88.5639 112° Southeast 381 438 10,000 -50 Descending Chicago Center
Sun 05:51:20 AM 42.3497 -88.4219 114° Southeast 406 467 10,100  Climbing Chicago Center
Sun 05:52:20 AM 42.3036 -88.3161 120° Southeast 401 461 10,000 -50 Descending Chicago Center
Sun 05:53:21 AM 42.2519 -88.1889 119° Southeast 389 448 10,000  Level Chicago Center
Sun 05:54:21 AM 42.2033 -88.0681 118° Southeast 371 427 10,000 -300 Level Chicago Center
Sun 05:55:21 AM 42.1611 -87.9647 119° Southeast 320 368 9,400 -1,200 Descending Chicago Center
Sun 05:56:21 AM 42.1117 -87.8436 119° Southeast 308 354 7,600 -1,488 Descending Chicago Center
Sun 05:57:22 AM 42.0786 -87.7397 113° Southeast 304 350 6,400 -893 Descending Chicago Center
Sun 05:58:22 AM 42.0514 -87.6378 110° East 292 336 5,800 -600 Descending Chicago Center
Sun 05:59:22 AM 42.0378 -87.5506 102° East 246 283 5,200 -744 Descending Chicago Center
Sun 06:00:23 AM 41.9925 -87.5503 180° South 214 246 4,300 -645 Descending Chicago Center
Sun 06:01:23 AM 41.9686 -87.5953 234° Southwest 169 194 3,900 -350 Descending Chicago Center
Sun 06:02:23 AM 41.9700 -87.6486 272° West 151 174 3,600 -350 Descending Chicago Center
Sun 06:03:23 AM 41.9689 -87.7008 268° West 143 165 3,200 -400 Descending Chicago Center

Login

Don't have an account? Register now (free) for customized features, flight alerts, and more!